Time;durP1;ratioP1;P1;durP2;ratioP2;P2;SDS_P1;SDS_P2;PMS_P1;PMS_P2;Temp;Humidity;BMP_temperature;BMP_pressure;BME280_temperature;BME280_humidity;BME280_pressure;Samples;Min_cycle;Max_cycle;Signal;HPM_P1;HPM_P2
2022/02/26 00:00:31;;;;;;;;;19.75;16.75;;;;;7.12;56.90;103155.22;2393737;28;45316;-80
2022/02/26 00:01:42;;;;;;;;;16.50;16.50;;;;;7.06;56.83;103156.88;2393536;28;45439;-80
2022/02/26 00:02:52;;;;;;;;;17.50;14.75;;;;;7.05;56.20;103154.22;2393646;28;45262;-79
2022/02/26 00:04:03;;;;;;;;;17.75;15.75;;;;;7.07;56.52;103152.53;2393678;28;46237;-79
2022/02/26 00:05:13;;;;;;;;;18.25;16.50;;;;;7.06;57.03;103156.00;2393557;28;45452;-80
2022/02/26 00:06:24;;;;;;;;;13.00;13.00;;;;;7.02;56.55;103154.16;2393490;28;45320;-81
2022/02/26 00:07:34;;;;;;;;;19.75;14.00;;;;;7.00;56.76;103151.53;2393846;28;45353;-82
2022/02/26 00:08:45;;;;;;;;;20.25;16.75;;;;;6.99;56.76;103160.19;2393212;28;45466;-82
2022/02/26 00:09:55;;;;;;;;;17.50;14.00;;;;;6.99;56.79;103157.59;2393114;28;45211;-81
2022/02/26 00:11:06;;;;;;;;;18.50;15.00;;;;;6.96;57.00;103155.78;2393144;28;46268;-81
2022/02/26 00:12:16;;;;;;;;;20.50;14.50;;;;;6.96;56.89;103150.56;2393644;28;45270;-81
2022/02/26 00:13:27;;;;;;;;;15.50;13.00;;;;;6.92;57.08;103142.63;2393221;28;45380;-82
2022/02/26 00:14:37;;;;;;;;;15.00;12.75;;;;;6.92;57.33;103150.47;2396424;28;45231;-81
2022/02/26 00:15:48;;;;;;;;;15.00;14.25;;;;;6.90;57.17;103144.31;2402923;28;45565;-81
2022/02/26 00:16:58;;;;;;;;;15.50;15.25;;;;;6.89;57.18;103153.03;2393703;28;45142;-82
2022/02/26 00:18:09;;;;;;;;;18.25;13.00;;;;;6.88;57.11;103156.47;2393088;28;45560;-82
2022/02/26 00:19:19;;;;;;;;;28.50;17.00;;;;;6.84;56.93;103153.78;2393835;28;45231;-82
2022/02/26 00:20:29;;;;;;;;;13.75;12.00;;;;;6.83;57.21;103154.66;2393292;28;46235;-82
2022/02/26 00:21:40;;;;;;;;;17.50;16.50;;;;;6.82;57.45;103154.59;2393599;28;44767;-82
2022/02/26 00:22:50;;;;;;;;;24.25;19.25;;;;;6.82;57.40;103158.13;2393307;28;46288;-82
2022/02/26 00:24:00;;;;;;;;;16.00;11.50;;;;;6.84;57.57;103166.00;2393704;28;44660;-82
2022/02/26 00:25:12;;;;;;;;;21.00;17.25;;;;;6.80;57.63;103154.59;2397300;28;45576;-82
2022/02/26 00:26:24;;;;;;;;;17.75;14.25;;;;;6.78;57.16;103155.41;2400465;28;45612;-79
2022/02/26 00:27:35;;;;;;;;;16.75;14.25;;;;;6.80;57.19;103161.53;2393505;28;45921;-79
2022/02/26 00:28:45;;;;;;;;;17.50;14.50;;;;;6.77;57.74;103156.22;2393308;28;44822;-79
2022/02/26 00:29:56;;;;;;;;;15.50;13.25;;;;;6.73;57.66;103150.97;2392529;28;47144;-79
2022/02/26 00:31:06;;;;;;;;;16.25;15.75;;;;;6.73;57.74;103153.56;2392909;28;45185;-79
2022/02/26 00:32:17;;;;;;;;;18.50;17.00;;;;;6.71;57.32;103150.06;2393308;28;45329;-81
2022/02/26 00:33:27;;;;;;;;;17.25;14.00;;;;;6.71;57.89;103149.16;2398518;28;45407;-81
2022/02/26 00:34:37;;;;;;;;;14.00;13.00;;;;;6.70;57.69;103158.72;2393472;28;45269;-81
2022/02/26 00:35:48;;;;;;;;;20.25;15.00;;;;;6.68;57.93;103160.44;2393449;28;45331;-80
2022/02/26 00:36:58;;;;;;;;;21.75;17.25;;;;;6.67;57.45;103168.25;2393346;28;46285;-80
2022/02/26 00:38:09;;;;;;;;;16.25;16.25;;;;;6.67;57.75;103169.09;2393259;28;45284;-80
2022/02/26 00:39:19;;;;;;;;;22.00;17.75;;;;;6.66;58.05;103169.06;2392375;28;46157;-80
2022/02/26 00:40:30;;;;;;;;;16.75;14.75;;;;;6.66;57.63;103172.59;2393182;28;45380;-80
2022/02/26 00:41:40;;;;;;;;;18.75;16.00;;;;;6.62;57.64;103165.50;2393261;28;45384;-80
2022/02/26 00:42:50;;;;;;;;;22.50;19.25;;;;;6.61;57.63;103164.63;2394045;28;45205;-80
2022/02/26 00:44:01;;;;;;;;;21.50;19.25;;;;;6.63;57.70;103169.88;2393468;28;45321;-80
2022/02/26 00:45:12;;;;;;;;;24.00;21.00;;;;;6.60;57.87;103170.69;2393337;28;44813;-80
2022/02/26 00:46:23;;;;;;;;;25.00;20.75;;;;;6.62;57.81;103165.50;2392441;28;46048;-81
2022/02/26 00:47:34;;;;;;;;;19.00;17.50;;;;;6.61;57.73;103161.13;2393069;28;45346;-81
2022/02/26 00:50:13;;;;;;;;;27.00;21.75;;;;;6.61;57.76;103161.13;2393226;28;45422;-84
2022/02/26 00:51:24;;;;;;;;;22.75;19.50;;;;;6.63;58.16;103160.31;2394350;28;45330;-82
2022/02/26 00:52:35;;;;;;;;;25.25;20.50;;;;;6.63;58.06;103156.81;2393521;28;45234;-82
2022/02/26 00:53:46;;;;;;;;;23.75;19.75;;;;;6.63;58.11;103168.16;2392373;28;45381;-82
2022/02/26 00:54:58;;;;;;;;;26.50;21.25;;;;;6.60;58.33;103157.63;2392627;28;45266;-81
2022/02/26 00:56:08;;;;;;;;;27.00;18.75;;;;;6.57;58.18;103165.41;2393341;28;45233;-81
2022/02/26 00:57:19;;;;;;;;;18.75;17.00;;;;;6.59;58.17;103163.69;2392611;28;45307;-82
2022/02/26 00:58:29;;;;;;;;;19.50;17.75;;;;;6.56;57.79;103160.16;2392463;28;46228;-82
2022/02/26 00:59:40;;;;;;;;;21.75;17.75;;;;;6.59;57.97;103162.84;2393408;28;44839;-82
2022/02/26 01:00:51;;;;;;;;;22.25;17.25;;;;;6.56;58.32;103162.75;2392622;28;46316;-82
2022/02/26 01:02:01;;;;;;;;;22.00;16.00;;;;;6.55;58.25;103167.09;2397555;28;45195;-83
2022/02/26 01:03:11;;;;;;;;;21.50;18.25;;;;;6.51;58.50;103165.25;2393140;28;45359;-83
2022/02/26 01:04:22;;;;;;;;;23.25;17.25;;;;;6.48;58.48;103158.22;2392477;28;44674;-83
2022/02/26 01:05:33;;;;;;;;;22.25;18.00;;;;;6.49;58.27;103162.63;2392499;28;46080;-82
2022/02/26 01:06:43;;;;;;;;;26.50;19.75;;;;;6.47;58.32;103164.28;2393340;28;45235;-82
2022/02/26 01:07:53;;;;;;;;;31.50;22.00;;;;;6.46;58.13;103159.03;2393156;28;45322;-82
2022/02/26 01:09:04;;;;;;;;;23.50;21.50;;;;;6.48;58.33;103167.78;2393015;28;45449;-81
2022/02/26 01:10:15;;;;;;;;;24.25;18.50;;;;;6.45;58.40;103166.00;2392825;28;46445;-79
2022/02/26 01:11:25;;;;;;;;;23.00;20.25;;;;;6.44;58.31;103177.31;2393503;28;45361;-81
2022/02/26 01:12:36;;;;;;;;;19.25;18.25;;;;;6.42;58.52;103176.34;2393244;28;46249;-81
2022/02/26 01:13:46;;;;;;;;;20.00;19.25;;;;;6.39;58.02;103179.81;2393000;28;45293;-80
2022/02/26 01:14:56;;;;;;;;;23.25;18.25;;;;;6.35;58.35;103177.94;2393053;28;46535;-79
2022/02/26 01:16:07;;;;;;;;;25.00;21.75;;;;;6.36;58.56;103178.84;2393349;28;45202;-85
2022/02/26 01:17:18;;;;;;;;;24.75;18.25;;;;;6.32;58.71;103177.91;2393006;28;46402;-85
2022/02/26 01:18:28;;;;;;;;;20.50;18.25;;;;;6.34;58.57;103181.44;2393007;28;45603;-85
2022/02/26 01:19:40;;;;;;;;;27.75;21.00;;;;;6.30;58.59;103175.22;2392273;28;47169;-84
2022/02/26 01:20:50;;;;;;;;;16.50;16.50;;;;;6.29;58.71;103173.47;2392630;28;45473;-85
2022/02/26 01:22:01;;;;;;;;;29.50;22.50;;;;;6.27;58.68;103175.16;2392593;28;47980;-85
2022/02/26 01:23:12;;;;;;;;;25.75;20.50;;;;;6.26;59.22;103178.63;2392777;28;45425;-86
2022/02/26 01:24:22;;;;;;;;;18.25;16.25;;;;;6.26;58.38;103183.84;2393077;28;45354;-89
2022/02/26 01:25:33;;;;;;;;;22.50;20.50;;;;;6.26;58.96;103182.97;2392922;28;45365;-89
2022/02/26 01:26:43;;;;;;;;;24.25;18.00;;;;;6.24;59.01;103188.16;2393028;28;45258;-88
2022/02/26 01:27:55;;;;;;;;;24.50;20.25;;;;;6.22;58.88;103184.63;2392348;28;45321;-88
2022/02/26 01:29:05;;;;;;;;;22.25;18.50;;;;;6.23;58.93;103193.31;2385389;28;47075;-88
2022/02/26 01:30:16;;;;;;;;;21.25;19.00;;;;;6.19;58.88;103181.94;2386247;28;45220;-88
2022/02/26 01:31:26;;;;;;;;;23.25;20.00;;;;;6.18;58.96;103181.03;2385441;28;45247;-88
2022/02/26 01:32:36;;;;;;;;;24.00;20.50;;;;;6.21;59.21;103192.41;2392585;28;44841;-88
2022/02/26 01:33:47;;;;;;;;;29.00;25.00;;;;;6.17;59.08;103184.47;2392972;28;46466;-88
2022/02/26 01:34:58;;;;;;;;;27.50;22.50;;;;;6.17;58.93;103189.69;2392821;28;45152;-88
2022/02/26 01:36:08;;;;;;;;;31.50;24.25;;;;;6.17;59.12;103186.22;2392258;28;47231;-88
2022/02/26 01:37:19;;;;;;;;;33.25;24.25;;;;;6.14;59.24;103186.16;2385566;28;45260;-88
2022/02/26 01:38:30;;;;;;;;;29.50;25.50;;;;;6.16;59.30;103185.34;2392509;28;45224;-89
2022/02/26 01:39:40;;;;;;;;;29.75;26.50;;;;;6.16;59.42;103181.84;2392805;28;45417;-87
2022/02/26 01:40:50;;;;;;;;;28.75;24.25;;;;;6.13;59.16;103181.75;2393967;28;45364;-87
2022/02/26 01:42:02;;;;;;;;;28.00;27.50;;;;;6.14;59.08;103180.91;2401580;28;45478;-87
2022/02/26 01:43:12;;;;;;;;;31.00;22.50;;;;;6.12;59.13;103190.44;2399011;28;46589;-87
2022/02/26 01:44:23;;;;;;;;;21.75;20.75;;;;;6.10;59.42;103192.16;2393104;28;45290;-87
2022/02/26 01:45:34;;;;;;;;;32.00;29.50;;;;;6.08;59.56;103189.47;2391603;28;48172;-86
2022/02/26 01:46:44;;;;;;;;;23.25;21.00;;;;;6.05;59.28;103182.41;2392652;28;44663;-87
2022/02/26 01:47:55;;;;;;;;;24.00;22.25;;;;;6.04;59.29;103183.28;2393006;28;46358;-87
2022/02/26 01:49:05;;;;;;;;;27.75;23.50;;;;;6.01;59.29;103183.19;2394728;28;45451;-87
2022/02/26 01:50:16;;;;;;;;;24.50;22.25;;;;;6.03;59.36;103178.88;2397712;28;47356;-87
2022/02/26 01:51:27;;;;;;;;;25.25;20.25;;;;;6.01;59.47;103183.19;2396655;28;45243;-86
2022/02/26 01:52:38;;;;;;;;;25.25;21.25;;;;;6.02;59.38;103184.97;2400907;28;45351;-87
2022/02/26 01:53:48;;;;;;;;;23.25;19.00;;;;;6.02;59.64;103181.47;2403321;28;45230;-86
2022/02/26 01:54:59;;;;;;;;;22.50;19.25;;;;;6.01;59.63;103177.06;2400401;28;46665;-86
2022/02/26 01:56:10;;;;;;;;;23.50;19.25;;;;;5.99;59.78;103178.75;2394852;28;45171;-86
2022/02/26 01:57:20;;;;;;;;;27.25;23.00;;;;;5.99;59.44;103184.88;2394485;28;45317;-86
2022/02/26 01:58:31;;;;;;;;;21.50;17.25;;;;;5.98;59.38;103177.88;2394618;28;45336;-86
2022/02/26 01:59:42;;;;;;;;;22.75;20.75;;;;;5.96;59.58;103174.34;2400845;28;46810;-86
2022/02/26 02:00:52;;;;;;;;;28.25;23.50;;;;;5.95;59.61;103175.22;2395273;28;45357;-86
2022/02/26 02:02:03;;;;;;;;;27.50;23.75;;;;;5.95;59.87;103183.03;2393837;28;45373;-86
2022/02/26 02:03:14;;;;;;;;;22.50;21.50;;;;;5.93;59.61;103176.88;2393741;28;45256;-87
2022/02/26 02:04:24;;;;;;;;;20.50;18.00;;;;;5.94;59.86;103181.25;2394170;28;45361;-86
2022/02/26 02:05:35;;;;;;;;;21.50;20.25;;;;;5.92;59.54;103178.63;2394355;28;45219;-86
2022/02/26 02:06:45;;;;;;;;;23.00;19.50;;;;;5.92;59.84;103178.63;2394355;28;46073;-86
2022/02/26 02:07:57;;;;;;;;;25.75;21.00;;;;;5.89;59.70;103178.53;2393589;28;44794;-86
2022/02/26 02:09:07;;;;;;;;;24.00;18.25;;;;;5.88;59.86;103175.91;2396201;28;46465;-85
2022/02/26 02:10:18;;;;;;;;;26.25;22.50;;;;;5.91;59.66;103178.56;2401280;28;45174;-85
2022/02/26 02:11:30;;;;;;;;;20.50;17.00;;;;;5.89;60.07;103182.88;2393644;28;45756;-85
2022/02/26 02:12:40;;;;;;;;;25.25;21.00;;;;;5.85;59.74;103180.16;2394446;28;45292;-85
2022/02/26 02:13:51;;;;;;;;;25.25;23.00;;;;;5.87;59.60;103180.22;2393715;28;46337;-85
2022/02/26 02:15:01;;;;;;;;;20.75;20.00;;;;;5.86;59.59;103188.88;2402724;28;45302;-86
2022/02/26 02:16:15;;;;;;;;;22.75;21.75;;;;;5.87;60.11;103187.16;2393816;28;46450;-87
2022/02/26 02:17:25;;;;;;;;;16.25;13.00;;;;;5.85;59.70;103193.22;2393659;28;45191;-87
2022/02/26 02:18:37;;;;;;;;;25.25;20.00;;;;;5.82;60.05;103187.94;2393832;28;45259;-86
2022/02/26 02:19:48;;;;;;;;;22.75;21.75;;;;;5.83;59.96;103180.97;2401208;28;44813;-85
2022/02/26 02:20:58;;;;;;;;;24.50;23.00;;;;;5.81;59.96;103180.94;2393926;28;46854;-81
2022/02/26 02:22:10;;;;;;;;;24.25;22.50;;;;;5.82;59.79;103179.22;2403348;28;45264;-81
2022/02/26 02:23:20;;;;;;;;;31.75;25.00;;;;;5.79;59.91;103180.00;2396580;28;46332;-81
2022/02/26 02:24:31;;;;;;;;;24.75;23.00;;;;;5.81;59.93;103180.94;2393903;28;45337;-82
2022/02/26 02:25:41;;;;;;;;;29.00;22.00;;;;;5.79;59.94;103189.56;2394027;28;46320;-82
2022/02/26 02:26:53;;;;;;;;;26.75;23.25;;;;;5.78;60.05;103190.44;2394372;28;44706;-82
2022/02/26 02:28:05;;;;;;;;;29.50;24.00;;;;;5.77;59.96;103189.53;2393156;28;47484;-82
2022/02/26 02:29:15;;;;;;;;;28.50;24.75;;;;;5.76;60.05;103192.09;2398957;28;45191;-82
2022/02/26 02:30:27;;;;;;;;;28.00;24.00;;;;;5.78;59.84;103185.19;2394302;28;45301;-82
2022/02/26 02:31:38;;;;;;;;;22.25;20.00;;;;;5.73;59.92;103182.44;2394400;28;45222;-82
2022/02/26 02:32:48;;;;;;;;;30.00;25.00;;;;;5.72;60.06;103176.38;2394142;28;45191;-82
2022/02/26 02:33:59;;;;;;;;;30.50;28.00;;;;;5.71;60.29;103171.09;2393362;28;45230;-82
2022/02/26 02:35:32;;;;;;;;;13.25;12.25;;;;;5.74;60.33;103182.50;2393632;28;45336;-82
2022/02/26 02:36:44;;;;;;;;;35.50;28.00;;;;;5.69;60.10;103178.00;2394326;28;45230;-82
2022/02/26 02:37:58;;;;;;;;;27.75;25.25;;;;;5.70;60.20;103177.16;2394324;28;45354;-82
2022/02/26 02:39:10;;;;;;;;;33.50;26.50;;;;;5.70;60.09;103187.59;2399606;28;45206;-84
2022/02/26 02:40:21;;;;;;;;;28.75;23.75;;;;;5.69;60.35;103180.59;2399636;28;45358;-83
2022/02/26 02:41:31;;;;;;;;;31.00;22.75;;;;;5.67;60.35;103179.69;2393547;28;45309;-81
2022/02/26 02:42:41;;;;;;;;;35.75;28.75;;;;;5.64;59.92;103170.03;2386672;28;48107;-82
2022/02/26 02:43:52;;;;;;;;;29.50;26.25;;;;;5.66;60.27;103175.28;2393437;28;45373;-82
2022/02/26 02:45:03;;;;;;;;;29.00;27.50;;;;;5.65;60.39;103174.44;2394323;28;45373;-83
2022/02/26 02:46:13;;;;;;;;;38.25;28.50;;;;;5.63;60.33;103171.75;2394306;28;45345;-83
2022/02/26 02:47:23;;;;;;;;;26.25;24.00;;;;;5.62;60.35;103163.91;2394043;28;45262;-83
2022/02/26 02:48:36;;;;;;;;;31.25;28.25;;;;;5.61;60.85;103162.13;2394630;28;45270;-83
2022/02/26 02:49:46;;;;;;;;;31.50;28.75;;;;;5.61;60.32;103160.41;2402768;28;47868;-83
2022/02/26 02:50:57;;;;;;;;;27.75;24.50;;;;;5.59;60.46;103156.88;2395267;28;44644;-83
2022/02/26 02:52:07;;;;;;;;;34.50;29.00;;;;;5.58;60.32;103157.69;2394061;28;45381;-83
2022/02/26 02:53:18;;;;;;;;;23.50;22.75;;;;;5.58;60.62;103162.06;2394257;28;45218;-82
2022/02/26 02:54:29;;;;;;;;;29.00;24.00;;;;;5.58;60.43;103173.34;2393529;28;45438;-82
2022/02/26 02:55:39;;;;;;;;;27.25;22.50;;;;;5.58;60.04;103173.34;2394335;28;45219;-83
2022/02/26 02:56:50;;;;;;;;;28.00;26.25;;;;;5.55;60.60;103175.91;2402489;28;46453;-83
2022/02/26 02:58:00;;;;;;;;;27.50;25.00;;;;;5.57;60.59;103181.16;2394292;28;45266;-85
2022/02/26 02:59:11;;;;;;;;;26.50;23.75;;;;;5.57;60.52;103186.38;2393938;28;45361;-80
2022/02/26 03:00:21;;;;;;;;;29.00;25.75;;;;;5.54;60.89;103178.44;2394245;28;45243;-84
2022/02/26 03:01:32;;;;;;;;;23.75;22.00;;;;;5.51;60.59;103171.41;2395070;28;46493;-83
2022/02/26 03:02:43;;;;;;;;;33.50;31.50;;;;;5.53;60.34;103169.75;2395540;28;45531;-82
2022/02/26 03:03:53;;;;;;;;;30.50;25.75;;;;;5.52;60.53;103162.75;2394574;28;46534;-82
2022/02/26 03:05:04;;;;;;;;;25.75;24.50;;;;;5.51;60.68;103163.59;2394037;28;45301;-80
2022/02/26 03:06:15;;;;;;;;;35.50;25.25;;;;;5.52;60.56;103165.38;2393954;28;45498;-82
2022/02/26 03:07:25;;;;;;;;;32.00;27.50;;;;;5.52;60.56;103168.00;2394002;28;45424;-81
2022/02/26 03:08:36;;;;;;;;;32.50;27.00;;;;;5.48;60.48;103163.53;2394095;28;45278;-82
2022/02/26 03:09:46;;;;;;;;;38.00;30.50;;;;;5.48;60.64;103160.91;2393711;28;45283;-81
2022/02/26 03:10:57;;;;;;;;;27.50;25.25;;;;;5.49;60.58;103165.28;2393602;28;46070;-81
2022/02/26 03:12:08;;;;;;;;;29.50;25.75;;;;;5.46;60.34;103154.75;2393868;28;45215;-83
2022/02/26 03:13:20;;;;;;;;;26.25;24.25;;;;;5.46;60.70;103157.38;2393538;28;45384;-83
2022/02/26 03:14:30;;;;;;;;;32.75;28.25;;;;;5.47;60.62;103159.16;2397144;28;45160;-85
2022/02/26 03:15:41;;;;;;;;;28.75;26.00;;;;;5.44;60.23;103152.13;2401888;28;45888;-84
2022/02/26 03:16:51;;;;;;;;;28.00;26.50;;;;;5.43;60.61;103147.75;2393587;28;44714;-85
2022/02/26 03:18:01;;;;;;;;;36.00;27.25;;;;;5.45;60.84;103155.63;2393847;28;46255;-84
2022/02/26 03:19:12;;;;;;;;;31.75;25.50;;;;;5.44;60.35;103146.00;2393167;28;45571;-85
2022/02/26 03:20:22;;;;;;;;;37.75;30.00;;;;;5.43;60.72;103142.53;2393354;28;45413;-79
2022/02/26 03:21:33;;;;;;;;;30.25;26.50;;;;;5.40;60.83;103147.66;2393906;28;45270;-79
2022/02/26 03:22:44;;;;;;;;;33.75;30.25;;;;;5.39;61.02;103148.50;2393507;28;45404;-79
2022/02/26 03:23:54;;;;;;;;;30.25;23.25;;;;;5.38;60.96;103151.97;2393821;28;44695;-78
2022/02/26 03:25:06;;;;;;;;;30.25;26.00;;;;;5.37;60.79;103156.28;2400568;28;45313;-79
2022/02/26 03:26:16;;;;;;;;;34.00;28.00;;;;;5.38;60.66;103155.44;2394014;28;45255;-79
2022/02/26 03:27:27;;;;;;;;;32.75;29.50;;;;;5.35;60.63;103155.38;2393790;28;45288;-79
2022/02/26 03:28:37;;;;;;;;;30.25;26.00;;;;;5.36;60.79;103154.50;2393985;28;44686;-79
2022/02/26 03:29:48;;;;;;;;;32.00;27.00;;;;;5.34;60.84;103150.97;2394039;28;45319;-79
2022/02/26 03:30:58;;;;;;;;;31.50;26.00;;;;;5.35;60.92;103147.53;2393982;28;44739;-79
2022/02/26 03:32:10;;;;;;;;;28.25;26.50;;;;;5.35;60.95;103147.53;2393545;28;45412;-78
2022/02/26 03:33:20;;;;;;;;;29.00;24.50;;;;;5.31;60.96;103145.66;2397949;28;45330;-78
2022/02/26 03:34:31;;;;;;;;;31.75;28.00;;;;;5.35;60.83;103157.97;2396775;28;46743;-78
2022/02/26 03:35:41;;;;;;;;;30.00;25.50;;;;;5.32;60.73;103151.78;2393729;28;45299;-78
2022/02/26 03:36:56;;;;;;;;;34.00;30.75;;;;;5.33;60.93;103150.94;2393909;28;45449;-78
2022/02/26 03:38:06;;;;;;;;;35.00;28.75;;;;;5.31;61.09;103150.88;2393798;28;45178;-79
2022/02/26 03:39:18;;;;;;;;;33.00;25.75;;;;;5.29;61.02;103147.34;2393708;28;45160;-79
2022/02/26 03:40:29;;;;;;;;;32.00;25.25;;;;;5.26;60.59;103150.75;2393620;28;45330;-80
2022/02/26 03:41:39;;;;;;;;;34.50;25.00;;;;;5.28;60.82;103148.22;2393837;28;45447;-80
2022/02/26 03:42:49;;;;;;;;;29.50;27.25;;;;;5.25;61.19;103151.59;2394623;28;45922;-79
2022/02/26 03:44:00;;;;;;;;;31.50;27.50;;;;;5.26;60.73;103155.97;2400792;28;45726;-79
2022/02/26 03:45:11;;;;;;;;;31.00;26.75;;;;;5.29;61.17;103160.38;2393769;28;45449;-79
2022/02/26 03:46:23;;;;;;;;;30.75;26.25;;;;;5.24;61.15;103148.94;2393597;28;46623;-79
2022/02/26 03:47:34;;;;;;;;;32.75;26.75;;;;;5.23;60.93;103150.69;2393741;28;44790;-79
2022/02/26 03:48:45;;;;;;;;;26.25;25.00;;;;;5.20;60.92;103154.91;2393720;28;46788;-79
2022/02/26 03:49:55;;;;;;;;;29.00;25.50;;;;;5.23;61.05;103161.13;2393776;28;45151;-79
2022/02/26 03:51:06;;;;;;;;;26.00;25.25;;;;;5.21;60.77;103154.09;2393617;28;45170;-79
2022/02/26 03:52:16;;;;;;;;;27.00;23.00;;;;;5.17;61.01;103147.88;2393584;28;45252;-79
2022/02/26 03:53:26;;;;;;;;;33.50;24.25;;;;;5.17;60.93;103146.16;2397560;28;45380;-79
2022/02/26 03:54:37;;;;;;;;;33.75;30.75;;;;;5.16;61.15;103147.00;2393062;28;45223;-79
2022/02/26 03:55:47;;;;;;;;;31.00;26.25;;;;;5.17;61.22;103150.50;2393447;28;45436;-79
2022/02/26 03:56:57;;;;;;;;;25.00;24.75;;;;;5.14;61.55;103148.69;2393730;28;45287;-80
2022/02/26 03:58:08;;;;;;;;;27.00;25.25;;;;;5.14;61.18;103150.41;2393711;28;45370;-81
2022/02/26 03:59:18;;;;;;;;;33.75;29.50;;;;;5.12;61.62;103152.06;2393679;28;45255;-81
2022/02/26 04:00:28;;;;;;;;;30.50;27.50;;;;;5.13;61.22;103152.16;2393585;28;46330;-80
2022/02/26 04:01:39;;;;;;;;;31.00;28.25;;;;;5.10;60.41;103148.53;2393845;28;44672;-80
2022/02/26 04:02:49;;;;;;;;;27.50;25.50;;;;;5.08;61.28;103148.50;2394681;28;46299;-80
2022/02/26 04:04:00;;;;;;;;;27.00;26.00;;;;;5.06;61.37;103150.19;2399084;28;44615;-80
2022/02/26 04:05:10;;;;;;;;;19.75;17.00;;;;;5.09;61.24;103158.09;2393339;28;46117;-80
2022/02/26 04:06:21;;;;;;;;;26.00;23.75;;;;;5.07;61.33;103160.66;2393772;28;45258;-80
2022/02/26 04:07:31;;;;;;;;;25.75;23.50;;;;;5.07;61.29;103162.38;2393404;28;45334;-80
2022/02/26 04:08:41;;;;;;;;;28.50;25.00;;;;;5.05;61.22;103156.25;2393758;28;44853;-80
2022/02/26 04:09:52;;;;;;;;;24.00;24.00;;;;;5.05;61.19;103148.41;2393295;28;45693;-80
2022/02/26 04:11:02;;;;;;;;;28.75;25.75;;;;;5.06;61.31;103158.03;2393299;28;44770;-80
2022/02/26 04:12:13;;;;;;;;;28.50;26.50;;;;;5.03;61.33;103161.41;2393536;28;45338;-81
2022/02/26 04:13:24;;;;;;;;;28.25;24.25;;;;;5.02;61.22;103164.84;2392773;28;45474;-79
2022/02/26 04:14:34;;;;;;;;;12.25;11.00;;;;;5.02;61.36;103170.06;2392692;28;46901;-78
2022/02/26 04:15:44;;;;;;;;;28.75;22.25;;;;;5.05;61.26;103169.28;2393725;28;45432;-79
2022/02/26 04:16:55;;;;;;;;;29.50;26.00;;;;;5.02;61.09;103177.88;2393486;28;46339;-79
2022/02/26 04:18:05;;;;;;;;;30.75;21.75;;;;;5.00;61.21;103166.53;2393528;28;45281;-79
2022/02/26 04:19:16;;;;;;;;;24.25;21.75;;;;;5.02;61.23;103174.38;2393481;28;46307;-79
2022/02/26 04:20:26;;;;;;;;;27.25;21.75;;;;;4.99;61.38;103163.88;2393229;28;45286;-78
2022/02/26 04:21:36;;;;;;;;;24.00;21.75;;;;;4.97;61.08;103163.81;2393455;28;45478;-77
2022/02/26 04:22:47;;;;;;;;;29.50;21.50;;;;;4.98;61.39;103169.94;2394294;28;45280;-77
2022/02/26 04:23:58;;;;;;;;;26.00;21.50;;;;;4.99;61.31;103169.09;2394068;28;45217;-77
2022/02/26 04:25:09;;;;;;;;;27.25;22.25;;;;;4.95;61.19;103166.41;2393411;28;45401;-77
2022/02/26 04:26:19;;;;;;;;;26.00;21.50;;;;;4.95;61.36;103175.94;2393454;28;46232;-78
2022/02/26 04:27:29;;;;;;;;;31.50;27.50;;;;;4.95;61.54;103179.44;2393550;28;45239;-79
2022/02/26 04:28:40;;;;;;;;;28.75;25.25;;;;;4.94;61.28;103181.97;2393369;28;45339;-77
2022/02/26 04:29:50;;;;;;;;;32.50;27.50;;;;;4.93;61.19;103188.03;2393263;28;45378;-76
2022/02/26 04:31:00;;;;;;;;;32.75;27.25;;;;;4.94;61.47;103179.38;2393351;28;45390;-78
2022/02/26 04:32:11;;;;;;;;;32.00;27.00;;;;;4.93;61.35;103183.72;2393456;28;45350;-78
2022/02/26 04:33:21;;;;;;;;;40.75;31.00;;;;;4.92;61.38;103181.03;2393353;28;45341;-79
2022/02/26 04:34:32;;;;;;;;;40.50;32.25;;;;;4.89;61.43;103175.75;2393596;28;44635;-79
2022/02/26 04:35:42;;;;;;;;;44.75;37.00;;;;;4.92;61.70;103175.84;2393120;28;45585;-77
2022/02/26 04:36:52;;;;;;;;;48.75;36.00;;;;;4.90;61.04;103181.00;2393478;28;44672;-77
2022/02/26 04:38:03;;;;;;;;;44.00;33.25;;;;;4.87;61.39;103173.09;2393262;28;45439;-78
2022/02/26 04:39:14;;;;;;;;;45.00;32.25;;;;;4.89;61.21;103180.97;2393609;28;44610;-78
2022/02/26 04:40:24;;;;;;;;;44.50;34.75;;;;;4.88;61.38;103190.50;2392618;28;45333;-78
2022/02/26 04:41:34;;;;;;;;;41.50;35.00;;;;;4.87;61.85;103183.50;2393531;28;45120;-78
2022/02/26 04:42:45;;;;;;;;;39.50;27.00;;;;;4.86;61.54;103197.41;2393344;28;45482;-78
2022/02/26 04:43:55;;;;;;;;;36.00;31.75;;;;;4.87;61.56;103191.34;2393459;28;45227;-78
2022/02/26 04:45:08;;;;;;;;;38.75;31.25;;;;;4.87;61.56;103193.03;2393229;28;46213;-78
2022/02/26 04:46:18;;;;;;;;;31.50;25.50;;;;;4.85;61.74;103187.78;2393487;28;45279;-78
2022/02/26 04:47:28;;;;;;;;;27.25;24.00;;;;;4.84;61.49;103186.91;2393415;28;46177;-78
2022/02/26 04:48:39;;;;;;;;;32.75;23.75;;;;;4.84;61.62;103192.13;2393525;28;45268;-78
2022/02/26 04:49:50;;;;;;;;;31.25;26.75;;;;;4.83;61.33;103187.75;2393022;28;45447;-78
2022/02/26 04:51:00;;;;;;;;;30.75;23.00;;;;;4.84;61.63;103191.22;2402620;28;45262;-77
2022/02/26 04:52:11;;;;;;;;;26.00;23.00;;;;;4.83;61.58;103198.19;2394447;28;45426;-78
2022/02/26 04:53:22;;;;;;;;;25.25;21.75;;;;;4.82;61.60;103196.41;2392629;28;45230;-82
2022/02/26 04:54:33;;;;;;;;;27.25;21.25;;;;;4.80;61.86;103190.25;2393009;28;46371;-82
2022/02/26 04:55:44;;;;;;;;;32.25;26.25;;;;;4.77;61.91;103194.47;2392480;28;45465;-81
2022/02/26 04:56:54;;;;;;;;;26.75;22.25;;;;;4.79;61.40;103188.47;2392769;28;46457;-80
2022/02/26 04:58:05;;;;;;;;;31.75;25.00;;;;;4.77;61.71;103186.66;2401321;28;44686;-80
2022/02/26 04:59:15;;;;;;;;;28.25;25.00;;;;;4.79;61.53;103182.41;2393408;28;46161;-79
2022/02/26 05:00:26;;;;;;;;;27.50;24.00;;;;;4.76;61.94;103179.69;2392916;28;45229;-79
2022/02/26 05:01:37;;;;;;;;;23.50;22.00;;;;;4.76;61.50;103182.31;2393350;28;45319;-79
2022/02/26 05:02:47;;;;;;;;;28.50;24.25;;;;;4.78;61.70;103188.44;2393278;28;45295;-79
2022/02/26 05:03:58;;;;;;;;;29.25;27.75;;;;;4.73;61.72;103178.78;2393187;28;45375;-79
2022/02/26 05:05:09;;;;;;;;;27.75;22.25;;;;;4.76;61.62;103184.91;2393076;28;45326;-79
2022/02/26 05:06:19;;;;;;;;;23.00;20.25;;;;;4.71;62.19;103177.84;2393293;28;46498;-79
2022/02/26 05:07:30;;;;;;;;;31.25;25.75;;;;;4.72;61.87;103176.09;2397273;28;44579;-80
2022/02/26 05:08:40;;;;;;;;;24.25;22.75;;;;;4.68;61.57;103175.13;2398928;28;46395;-81
2022/02/26 05:09:51;;;;;;;;;33.50;25.00;;;;;4.68;61.93;103167.31;2392696;28;45364;-81
2022/02/26 05:11:02;;;;;;;;;29.50;20.75;;;;;4.72;61.83;103173.50;2399015;28;45507;-80
2022/02/26 05:12:12;;;;;;;;;31.00;25.75;;;;;4.67;61.74;103170.75;2398717;28;45352;-81
2022/02/26 05:13:23;;;;;;;;;25.75;23.00;;;;;4.65;61.96;103175.03;2392916;28;45428;-80
2022/02/26 05:14:33;;;;;;;;;24.50;23.00;;;;;4.68;61.89;103177.75;2393398;28;45363;-77
2022/02/26 05:15:44;;;;;;;;;25.25;20.75;;;;;4.67;61.46;103178.56;2393078;28;45598;-78
2022/02/26 05:16:54;;;;;;;;;25.25;22.75;;;;;4.65;61.78;103182.84;2393280;28;45358;-78
2022/02/26 05:18:05;;;;;;;;;23.75;19.50;;;;;4.66;61.91;103179.41;2393138;28;45424;-78
2022/02/26 05:19:16;;;;;;;;;21.25;20.00;;;;;4.63;61.84;103174.09;2393277;28;45460;-78
2022/02/26 05:20:27;;;;;;;;;24.00;21.25;;;;;4.66;62.08;103178.53;2394682;28;45556;-78
2022/02/26 05:21:37;;;;;;;;;22.50;21.00;;;;;4.64;61.79;103175.88;2399487;28;45219;-77
2022/02/26 05:22:48;;;;;;;;;27.00;21.50;;;;;4.63;61.45;103173.22;2389651;28;46066;-77
2022/02/26 05:23:58;;;;;;;;;22.25;20.25;;;;;4.64;61.76;103175.00;2391501;28;45159;-77
2022/02/26 05:25:10;;;;;;;;;22.25;19.25;;;;;4.64;61.85;103175.88;2392781;28;46229;-79
2022/02/26 05:26:21;;;;;;;;;24.50;23.50;;;;;4.63;61.83;103181.91;2394718;28;45226;-79